Aviation Digital Data Service (ADDS)

Output produced by METARs form (1347 UTC 10 August 2022)
found at http://www.aviationweather.gov/metar/data/
 
Forecast for: UTSS (SAMARKAND , UZ)
Text: TAF UTSS 101052Z 1012/1112 07012G22KT 9999 NSC
Forecast period: 1200 UTC 10 August 2022 to 1200 UTC 11 August 2022
Forecast type: FROM: standard forecast or significant change
Winds: from the ENE (70 degrees) at 14 MPH (12 knots; 6.2 m/s)
gusting to 25 MPH (22 knots; 11.3 m/s)
Visibility: 6 or more miles (10+ km)
Ceiling: unknown
Clouds: missing
Weather: no significant weather forecast for this period
Text: TEMPO 1012/1015 5000 DU
Forecast period: 1200 to 1500 UTC 10 August 2022
Forecast type: TEMPORARY: The following changes expected for less than half the time period
Visibility: 3 miles (5 km)
Ceiling: unknown
Clouds: missing
Weather: DU  (widespread dust)